createdAt,value
2018-11-07T00:01:07.635Z,101452.28
2018-11-07T00:03:36.791Z,101455.68
2018-11-07T00:06:05.896Z,101456.90
2018-11-07T00:08:35.246Z,101460.33
2018-11-07T00:11:04.288Z,101462.49
2018-11-07T00:13:33.214Z,101459.70
2018-11-07T00:16:02.091Z,101467.92
2018-11-07T00:18:30.992Z,101466.30
2018-11-07T00:20:59.885Z,101465.11
2018-11-07T00:23:28.796Z,101468.13
2018-11-07T00:25:57.698Z,101469.81
2018-11-07T00:28:26.508Z,101471.20
2018-11-07T00:30:55.635Z,101460.78
2018-11-07T00:33:24.309Z,101462.45
2018-11-07T00:35:53.189Z,101459.47
2018-11-07T00:38:22.409Z,101456.81
2018-11-07T00:40:51.411Z,101455.78
2018-11-07T00:43:20.211Z,101455.38
2018-11-07T00:45:49.212Z,101457.14
2018-11-07T00:48:18.176Z,101461.47
2018-11-07T00:50:46.951Z,101461.96
2018-11-07T00:53:15.911Z,101457.76
2018-11-07T00:55:44.957Z,101457.92
2018-11-07T00:58:13.865Z,101456.49
2018-11-07T01:00:42.814Z,101465.62
2018-11-07T01:03:11.702Z,101469.55
2018-11-07T01:05:40.524Z,101475.23
2018-11-07T01:08:09.345Z,101473.43
2018-11-07T01:10:39.667Z,101463.74
2018-11-07T01:13:08.436Z,101472.41
2018-11-07T01:15:37.591Z,101475.39
2018-11-07T01:18:06.724Z,101480.17
2018-11-07T01:20:35.524Z,101474.58
2018-11-07T01:23:04.358Z,101477.69
2018-11-07T01:25:33.306Z,101481.33
2018-11-07T01:28:02.307Z,101481.33
2018-11-07T01:30:31.288Z,101481.37
2018-11-07T01:33:00.073Z,101486.11
2018-11-07T01:35:29.186Z,101487.91
2018-11-07T01:37:58.692Z,101487.87
2018-11-07T01:40:28.323Z,101486.36
2018-11-07T01:42:57.817Z,101486.45
2018-11-07T01:45:27.015Z,101486.16
2018-11-07T01:47:56.073Z,101484.33
2018-11-07T01:50:25.027Z,101489.27
2018-11-07T01:52:53.892Z,101486.66
2018-11-07T01:55:22.762Z,101486.20
2018-11-07T01:57:51.623Z,101487.52
2018-11-07T02:00:20.653Z,101489.23
2018-11-07T02:02:49.661Z,101492.17
2018-11-07T02:05:18.907Z,101495.77
2018-11-07T02:07:48.312Z,101492.74
2018-11-07T02:10:17.442Z,101494.38
2018-11-07T02:12:46.609Z,101490.38
2018-11-07T02:15:15.691Z,101491.77
2018-11-07T02:17:44.567Z,101490.87
2018-11-07T02:20:13.533Z,101492.95
2018-11-07T02:22:42.744Z,101490.22
2018-11-07T02:25:11.443Z,101484.45
2018-11-07T02:27:40.865Z,101490.87
2018-11-07T02:30:14.821Z,101488.38
2018-11-07T02:32:44.183Z,101493.77
2018-11-07T02:35:13.109Z,101490.17
2018-11-07T02:37:42.152Z,101493.64
2018-11-07T02:40:11.101Z,101491.52
2018-11-07T02:42:39.948Z,101493.03
2018-11-07T02:45:08.939Z,101502.30
2018-11-07T02:47:38.062Z,101496.62
2018-11-07T02:50:08.108Z,101503.45
2018-11-07T02:52:36.823Z,101480.61
2018-11-07T02:55:06.043Z,101499.45
2018-11-07T02:57:35.064Z,101498.92
2018-11-07T03:00:03.895Z,101495.52
2018-11-07T03:02:32.803Z,101500.55
2018-11-07T03:05:01.694Z,101497.77
2018-11-07T03:07:30.400Z,101493.44
2018-11-07T03:09:59.281Z,101491.27
2018-11-07T03:12:28.204Z,101499.94
2018-11-07T03:14:57.218Z,101497.32
2018-11-07T03:17:26.425Z,101502.10
2018-11-07T03:19:55.529Z,101499.48
2018-11-07T03:22:24.629Z,101500.75
2018-11-07T03:24:53.643Z,101505.83
2018-11-07T03:27:22.786Z,101506.64
2018-11-07T03:29:51.826Z,101506.19
2018-11-07T03:32:20.718Z,101510.28
2018-11-07T03:34:49.507Z,101514.97
2018-11-07T03:37:18.456Z,101518.45
2018-11-07T03:39:47.775Z,101518.92
2018-11-07T03:42:16.869Z,101524.39
2018-11-07T03:44:46.005Z,101523.78
2018-11-07T03:47:14.924Z,101521.87
2018-11-07T03:49:44.132Z,101518.73
2018-11-07T03:52:13.073Z,101519.39
2018-11-07T03:54:41.985Z,101522.82
2018-11-07T03:57:10.933Z,101530.52
2018-11-07T03:59:39.825Z,101527.36
2018-11-07T04:02:09.612Z,101528.67
2018-11-07T04:04:38.840Z,101533.30
2018-11-07T04:07:08.220Z,101531.42
2018-11-07T04:09:37.324Z,101526.10
2018-11-07T04:12:06.345Z,101389.23
2018-11-07T04:14:35.366Z,101532.03
2018-11-07T04:17:04.176Z,101531.74
2018-11-07T04:19:33.052Z,101530.27
2018-11-07T04:22:01.891Z,101530.72
2018-11-07T04:24:30.756Z,101527.56
2018-11-07T04:26:59.692Z,101530.48
2018-11-07T04:29:28.541Z,101530.59
2018-11-07T04:31:57.481Z,101534.19
2018-11-07T04:34:26.276Z,101533.30
2018-11-07T04:36:55.475Z,101543.31
2018-11-07T04:39:24.275Z,101550.66
2018-11-07T04:41:53.095Z,101548.09
2018-11-07T04:44:21.887Z,101545.92
2018-11-07T04:46:50.918Z,101546.86
2018-11-07T04:49:19.992Z,101547.72
2018-11-07T04:51:48.856Z,101546.86
2018-11-07T04:54:17.729Z,101546.91
2018-11-07T04:56:46.824Z,101543.59
2018-11-07T04:59:15.789Z,101544.08
2018-11-07T05:01:44.589Z,101413.59
2018-11-07T05:04:13.465Z,101542.64
2018-11-07T05:06:42.448Z,101539.58
2018-11-07T05:09:11.372Z,101544.41
2018-11-07T05:11:40.385Z,101549.77
2018-11-07T05:14:09.541Z,101551.71
2018-11-07T05:16:38.264Z,101555.52
2018-11-07T05:19:07.323Z,101557.53
2018-11-07T05:21:36.444Z,101557.53
2018-11-07T05:24:06.050Z,101563.25
2018-11-07T05:26:34.997Z,101558.83
2018-11-07T05:29:04.033Z,101554.16
2018-11-07T05:31:33.140Z,101569.78
2018-11-07T05:34:02.005Z,101573.14
2018-11-07T05:36:30.924Z,101574.00
2018-11-07T05:38:59.681Z,101570.52
2018-11-07T05:41:28.565Z,101579.16
2018-11-07T05:43:57.520Z,101571.88
2018-11-07T05:46:26.667Z,101573.22
2018-11-07T05:48:55.883Z,101574.94
2018-11-07T05:51:24.847Z,101584.84
2018-11-07T05:53:53.931Z,101586.06
2018-11-07T05:56:22.994Z,101584.72
2018-11-07T05:58:52.034Z,101589.38
2018-11-07T06:01:21.001Z,101585.98
2018-11-07T06:03:50.027Z,101594.61
2018-11-07T06:06:19.078Z,101597.60
2018-11-07T06:08:48.078Z,101605.81
2018-11-07T06:11:16.962Z,101608.44
2018-11-07T06:13:46.008Z,101612.81
2018-11-07T06:16:15.073Z,101618.04
2018-11-07T06:18:44.045Z,101619.39
2018-11-07T06:21:12.948Z,101622.20
2018-11-07T06:23:41.794Z,101626.61
2018-11-07T06:26:10.719Z,101630.50
2018-11-07T06:28:39.585Z,101630.30
2018-11-07T06:31:08.277Z,101633.74
2018-11-07T06:33:37.219Z,101640.63
2018-11-07T06:36:06.666Z,101639.77
2018-11-07T06:38:35.378Z,101651.00
2018-11-07T06:41:04.367Z,101650.06
2018-11-07T06:43:33.480Z,101656.16
2018-11-07T06:46:03.378Z,101664.34
2018-11-07T06:48:32.613Z,101656.01
2018-11-07T06:51:01.490Z,101664.72
2018-11-07T06:53:30.334Z,101670.29
2018-11-07T06:55:59.143Z,101671.14
2018-11-07T06:58:27.915Z,101672.91
2018-11-07T07:00:56.896Z,101676.83
2018-11-07T07:03:25.634Z,101681.58
2018-11-07T07:05:54.514Z,101686.36
2018-11-07T07:08:23.350Z,101686.36
2018-11-07T07:10:52.211Z,101688.12
2018-11-07T07:13:21.312Z,101695.75
2018-11-07T07:15:50.418Z,101701.89
2018-11-07T07:18:19.049Z,101701.40
2018-11-07T07:20:47.998Z,101707.91
2018-11-07T07:23:16.846Z,101708.31
2018-11-07T07:25:46.104Z,101717.81
2018-11-07T07:28:15.018Z,101713.95
2018-11-07T07:30:44.120Z,101719.13
2018-11-07T07:33:13.290Z,101723.05
2018-11-07T07:35:42.721Z,101731.72
2018-11-07T07:38:11.926Z,101733.02
2018-11-07T07:40:41.228Z,101736.50
2018-11-07T07:43:10.292Z,101745.59
2018-11-07T07:45:39.533Z,101741.25
2018-11-07T07:48:08.513Z,101749.66
2018-11-07T07:50:37.544Z,101750.30
2018-11-07T07:53:06.892Z,101751.98
2018-11-07T07:55:35.977Z,101762.75
2018-11-07T07:58:06.166Z,101760.73
2018-11-07T08:00:35.264Z,101768.13
2018-11-07T08:03:04.558Z,101768.95
2018-11-07T08:05:33.399Z,101767.61
2018-11-07T08:08:02.561Z,101768.92
2018-11-07T08:10:31.721Z,101769.41
2018-11-07T08:13:00.916Z,101774.60
2018-11-07T08:15:29.979Z,101780.70
2018-11-07T08:17:59.046Z,101784.14
2018-11-07T08:20:28.257Z,101780.70
2018-11-07T08:22:57.390Z,101790.16
2018-11-07T08:25:26.261Z,101794.98
2018-11-07T08:27:55.230Z,101793.16
2018-11-07T08:30:24.281Z,101791.39
2018-11-07T08:32:53.005Z,101794.09
2018-11-07T08:35:21.750Z,101795.02
2018-11-07T08:37:50.635Z,101796.78
2018-11-07T08:40:21.765Z,101799.95
2018-11-07T08:42:51.024Z,101802.57
2018-11-07T08:45:19.977Z,101806.53
2018-11-07T08:47:49.075Z,101809.56
2018-11-07T08:50:20.048Z,101812.48
2018-11-07T08:52:49.462Z,101818.55
2018-11-07T08:55:20.580Z,101821.53
2018-11-07T08:57:49.509Z,101827.70
2018-11-07T09:00:20.605Z,101821.30
2018-11-07T09:02:49.681Z,101821.27
2018-11-07T09:05:19.424Z,101822.39
2018-11-07T09:07:48.917Z,101822.70
2018-11-07T09:10:19.094Z,101825.80
2018-11-07T09:12:48.060Z,101644.58
2018-11-07T09:15:18.315Z,101829.42
2018-11-07T09:17:47.326Z,101832.45
2018-11-07T09:20:21.205Z,101832.04
2018-11-07T09:22:50.031Z,101708.99
2018-11-07T09:25:19.225Z,101844.09
2018-11-07T09:27:48.904Z,101847.09
2018-11-07T09:30:19.363Z,101846.19
2018-11-07T09:32:48.536Z,101840.05
2018-11-07T09:35:17.629Z,101849.52
2018-11-07T09:37:46.917Z,101849.86
2018-11-07T09:40:18.347Z,101855.44
2018-11-07T09:42:48.017Z,101853.20
2018-11-07T09:45:18.278Z,101849.68
2018-11-07T09:47:47.911Z,101862.33
2018-11-07T09:50:17.516Z,101858.33
2018-11-07T09:52:46.675Z,101862.62
2018-11-07T09:55:17.226Z,101866.55
2018-11-07T09:57:46.265Z,101875.72
2018-11-07T10:00:17.336Z,101879.72
2018-11-07T10:02:46.495Z,101876.35
2018-11-07T10:05:16.437Z,101873.77
2018-11-07T10:07:45.225Z,101872.88
2018-11-07T10:10:16.383Z,101884.62
2018-11-07T10:12:45.792Z,101883.20
2018-11-07T10:15:15.068Z,101887.92
2018-11-07T10:17:43.926Z,101883.95
2018-11-07T10:20:16.246Z,101885.34
2018-11-07T10:22:45.849Z,101890.13
2018-11-07T10:25:15.315Z,101883.09
2018-11-07T10:27:44.566Z,101887.92
2018-11-07T10:30:16.055Z,101887.72
2018-11-07T10:32:46.059Z,101887.83
2018-11-07T10:35:15.161Z,101896.03
2018-11-07T10:37:44.364Z,101900.92
2018-11-07T10:40:16.481Z,101898.20
2018-11-07T10:42:46.131Z,101900.27
2018-11-07T10:45:15.669Z,101900.83
2018-11-07T10:47:45.856Z,101906.44
2018-11-07T10:50:16.476Z,101906.75
2018-11-07T10:52:46.328Z,101909.33
2018-11-07T10:55:16.127Z,101909.78
2018-11-07T10:57:45.064Z,101919.32
2018-11-07T11:00:20.208Z,101918.88
2018-11-07T11:02:54.466Z,101918.05
2018-11-07T11:05:23.373Z,101912.77
2018-11-07T11:07:52.480Z,101919.80
2018-11-07T11:10:21.531Z,101922.83
2018-11-07T11:12:50.343Z,101924.17
2018-11-07T11:15:19.334Z,101924.59
2018-11-07T11:17:48.551Z,101919.39
2018-11-07T11:20:17.662Z,101922.59
2018-11-07T11:22:47.766Z,101928.14
2018-11-07T11:25:16.898Z,101915.91
2018-11-07T11:27:46.101Z,101915.98
2018-11-07T11:30:15.453Z,101927.76
2018-11-07T11:32:44.513Z,101930.41
2018-11-07T11:35:13.844Z,101929.96
2018-11-07T11:37:42.759Z,101936.92
2018-11-07T11:40:13.650Z,101939.09
2018-11-07T11:42:43.510Z,101941.64
2018-11-07T11:45:13.770Z,101942.05
2018-11-07T11:47:43.419Z,101941.57
2018-11-07T11:50:15.243Z,101950.59
2018-11-07T11:52:45.348Z,101949.73
2018-11-07T11:55:14.329Z,101944.64
2018-11-07T11:57:43.654Z,101949.42
2018-11-07T12:00:14.955Z,101958.21
2018-11-07T12:02:44.126Z,101957.35
2018-11-07T12:05:13.911Z,101952.63
2018-11-07T12:07:43.190Z,101953.59
2018-11-07T12:10:17.633Z,101959.72
2018-11-07T12:12:48.711Z,101964.89
2018-11-07T12:15:18.879Z,101965.78
2018-11-07T12:17:47.756Z,101968.41
2018-11-07T12:20:16.770Z,101972.75
2018-11-07T12:22:45.563Z,101976.70
2018-11-07T12:25:15.370Z,101979.73
2018-11-07T12:27:44.620Z,101986.73
2018-11-07T12:30:18.118Z,101987.17
2018-11-07T12:32:48.531Z,101983.70
2018-11-07T12:35:17.932Z,101987.28
2018-11-07T12:37:46.708Z,101993.05
2018-11-07T12:40:16.176Z,101994.39
2018-11-07T12:42:45.334Z,101998.29
2018-11-07T12:45:15.796Z,101994.33
2018-11-07T12:47:44.843Z,101995.19
2018-11-07T12:50:16.085Z,101996.50
2018-11-07T12:52:45.941Z,102000.84
2018-11-07T12:55:15.151Z,101995.77
2018-11-07T12:57:43.966Z,101994.05
2018-11-07T13:00:15.579Z,101994.05
2018-11-07T13:02:44.453Z,102000.59
2018-11-07T13:05:14.776Z,101986.67
2018-11-07T13:07:44.501Z,101987.09
2018-11-07T13:10:15.770Z,101988.81
2018-11-07T13:12:45.425Z,101990.15
2018-11-07T13:15:15.025Z,102003.30
2018-11-07T13:18:46.947Z,102002.41
2018-11-07T13:21:16.078Z,102009.37
2018-11-07T13:23:45.221Z,102004.16
2018-11-07T13:26:13.882Z,102006.36
2018-11-07T13:28:42.977Z,102009.84
2018-11-07T13:31:11.904Z,102013.92
2018-11-07T13:33:40.757Z,102016.93
2018-11-07T13:36:09.847Z,102019.55
2018-11-07T13:38:38.840Z,102022.12
2018-11-07T13:41:07.603Z,102025.17
2018-11-07T13:43:36.378Z,102029.47
2018-11-07T13:46:06.067Z,102030.40
2018-11-07T13:48:34.964Z,102034.36
2018-11-07T13:51:03.781Z,102038.31
2018-11-07T13:53:32.536Z,102039.17
2018-11-07T13:56:01.601Z,102038.81
2018-11-07T13:58:30.429Z,102045.36
2018-11-07T14:00:59.413Z,102045.42
2018-11-07T14:03:28.315Z,102049.73
2018-11-07T14:05:57.411Z,102045.42
2018-11-07T14:08:26.219Z,102050.69
2018-11-07T14:10:55.000Z,102055.95
2018-11-07T14:13:23.996Z,102062.08
2018-11-07T14:15:53.001Z,102058.23
2018-11-07T14:18:21.830Z,102069.63
2018-11-07T14:20:50.760Z,102069.30
2018-11-07T14:23:19.747Z,102072.36
2018-11-07T14:25:48.740Z,102072.00
2018-11-07T14:28:18.265Z,102078.57
2018-11-07T14:30:47.211Z,102069.86
2018-11-07T14:33:16.067Z,102069.86
2018-11-07T14:35:45.037Z,102073.87
2018-11-07T14:38:14.325Z,102069.95
2018-11-07T14:40:43.253Z,102062.98
2018-11-07T14:43:12.129Z,102070.84
2018-11-07T14:45:40.936Z,102071.84
2018-11-07T14:48:09.725Z,102071.45
2018-11-07T14:50:38.907Z,102071.42
2018-11-07T14:53:07.647Z,102070.98
2018-11-07T14:55:36.977Z,102066.20
2018-11-07T14:58:05.836Z,102071.42
2018-11-07T15:00:34.649Z,102077.13
2018-11-07T15:03:03.457Z,102081.47
2018-11-07T15:05:32.312Z,102081.02
2018-11-07T15:08:01.114Z,102082.33
2018-11-07T15:10:30.064Z,102089.38
2018-11-07T15:12:58.795Z,102092.84
2018-11-07T15:15:27.527Z,102095.88
2018-11-07T15:17:56.368Z,102099.45
2018-11-07T15:20:25.185Z,102101.58
2018-11-07T15:23:08.259Z,102103.31
2018-11-07T15:25:37.024Z,102104.20
2018-11-07T15:28:05.745Z,102104.73
2018-11-07T15:30:35.664Z,102111.31
2018-11-07T15:33:04.570Z,102104.00
2018-11-07T15:35:33.530Z,102115.77
2018-11-07T15:38:03.024Z,102109.20
2018-11-07T15:40:32.004Z,102118.36
2018-11-07T15:43:01.146Z,102116.99
2018-11-07T15:45:29.929Z,102114.35
2018-11-07T15:47:58.723Z,102112.69
2018-11-07T15:50:32.843Z,102121.78
2018-11-07T15:53:01.929Z,102117.05
2018-11-07T15:55:31.021Z,102121.00
2018-11-07T15:57:59.728Z,102138.88
2018-11-07T16:00:28.510Z,102128.89
2018-11-07T16:02:57.283Z,102128.53
2018-11-07T16:05:26.066Z,102129.44
2018-11-07T16:07:54.870Z,102128.11
2018-11-07T16:10:24.538Z,102129.86
2018-11-07T16:12:53.358Z,102126.83
2018-11-07T16:15:22.277Z,102131.09
2018-11-07T16:17:51.033Z,102128.92
2018-11-07T16:20:20.973Z,102127.61
2018-11-07T16:22:50.225Z,102127.67
2018-11-07T16:25:19.044Z,102138.57
2018-11-07T16:27:47.830Z,102141.63
2018-11-07T16:30:18.165Z,102146.02
2018-11-07T16:32:47.052Z,102138.59
2018-11-07T16:35:16.227Z,102141.63
2018-11-07T16:37:45.429Z,102147.75
2018-11-07T16:40:15.541Z,102145.60
2018-11-07T16:42:44.850Z,102147.88
2018-11-07T16:45:14.273Z,102155.77
2018-11-07T16:47:43.555Z,102146.72
2018-11-07T16:50:13.477Z,102151.97
2018-11-07T16:52:42.419Z,102154.11
2018-11-07T16:55:11.294Z,102159.86
2018-11-07T16:57:40.341Z,102161.14
2018-11-07T17:00:13.581Z,102155.94
2018-11-07T17:02:43.057Z,102162.47
2018-11-07T17:05:12.899Z,102165.50
2018-11-07T17:07:41.612Z,102166.37
2018-11-07T17:10:11.554Z,102164.25
2018-11-07T17:12:40.426Z,102175.49
2018-11-07T17:15:09.173Z,102199.02
2018-11-07T17:17:38.420Z,102178.58
2018-11-07T17:20:08.284Z,102182.49
2018-11-07T17:22:37.190Z,102185.48
2018-11-07T17:25:07.505Z,102184.64
2018-11-07T17:27:37.232Z,102182.07
2018-11-07T17:30:07.221Z,102181.27
2018-11-07T17:32:36.279Z,102180.81
2018-11-07T17:35:05.314Z,102185.11
2018-11-07T17:37:34.094Z,102186.86
2018-11-07T17:40:02.761Z,102189.53
2018-11-07T17:42:31.520Z,102192.95
2018-11-07T17:45:00.654Z,102192.50
2018-11-07T17:47:29.438Z,102194.23
2018-11-07T17:49:58.246Z,102188.61
2018-11-07T17:52:27.156Z,102197.31
2018-11-07T17:54:56.021Z,102196.42
2018-11-07T17:57:24.803Z,102199.91
2018-11-07T17:59:53.490Z,102199.88
2018-11-07T18:02:22.630Z,102205.52
2018-11-07T18:04:51.540Z,102202.47
2018-11-07T18:07:20.261Z,102202.92
2018-11-07T18:09:49.144Z,102205.53
2018-11-07T18:12:18.027Z,102212.48
2018-11-07T18:14:46.947Z,102207.70
2018-11-07T18:17:15.801Z,102205.53
2018-11-07T18:19:45.052Z,102212.55
2018-11-07T18:22:13.769Z,102208.29
2018-11-07T18:24:43.431Z,102213.19
2018-11-07T18:27:12.264Z,102215.82
2018-11-07T18:29:41.050Z,102215.94
2018-11-07T18:32:10.761Z,102210.27
2018-11-07T18:34:39.714Z,102214.62
2018-11-07T18:37:09.045Z,102213.77
2018-11-07T18:39:38.598Z,102226.39
2018-11-07T18:42:07.484Z,102222.03
2018-11-07T18:44:36.535Z,102221.58
2018-11-07T18:47:05.934Z,102225.97
2018-11-07T18:49:35.088Z,102228.71
2018-11-07T18:52:04.076Z,102234.50
2018-11-07T18:54:33.067Z,102238.84
2018-11-07T18:57:01.767Z,102243.19
2018-11-07T18:59:30.542Z,102245.29
2018-11-07T19:01:59.501Z,102245.78
2018-11-07T19:04:28.436Z,102247.13
2018-11-07T19:06:57.489Z,102249.73
2018-11-07T19:09:26.550Z,102250.16
2018-11-07T19:11:55.494Z,102254.09
2018-11-07T19:14:24.494Z,102261.59
2018-11-07T19:16:53.487Z,102254.23
2018-11-07T19:19:22.694Z,102254.23
2018-11-07T19:21:51.547Z,102256.42
2018-11-07T19:24:20.510Z,102259.97
2018-11-07T19:26:49.487Z,102268.28
2018-11-07T19:29:18.405Z,102265.69
2018-11-07T19:31:48.306Z,102273.48
2018-11-07T19:34:17.938Z,102271.31
2018-11-07T19:36:46.882Z,102277.83
2018-11-07T19:39:15.792Z,102282.22
2018-11-07T19:41:44.528Z,102287.07
2018-11-07T19:44:13.339Z,102288.83
2018-11-07T19:46:42.165Z,102288.41
2018-11-07T19:49:11.069Z,102282.74
2018-11-07T19:51:39.929Z,102287.16
2018-11-07T19:54:08.765Z,102291.98
2018-11-07T19:56:37.716Z,102287.72
2018-11-07T19:59:06.923Z,102289.02
2018-11-07T20:01:36.159Z,102285.56
2018-11-07T20:04:05.478Z,102292.98
2018-11-07T20:06:34.915Z,102292.98
2018-11-07T20:09:05.113Z,102298.17
2018-11-07T20:11:34.267Z,102294.70
2018-11-07T20:14:03.499Z,102300.89
2018-11-07T20:16:32.977Z,102298.70
2018-11-07T20:19:02.229Z,102301.31
2018-11-07T20:21:31.731Z,102313.06
2018-11-07T20:24:01.195Z,102315.27
2018-11-07T20:26:30.298Z,102317.42
2018-11-07T20:28:59.373Z,102317.80
2018-11-07T20:31:28.589Z,102316.62
2018-11-07T20:33:58.753Z,102323.09
2018-11-07T20:36:27.755Z,102327.02
2018-11-07T20:38:56.772Z,102325.78
2018-11-07T20:41:25.931Z,102348.86
2018-11-07T20:43:55.222Z,102190.80
2018-11-07T20:46:24.079Z,102331.48
2018-11-07T20:48:53.366Z,102345.39
2018-11-07T20:51:22.213Z,102338.44
2018-11-07T20:53:51.357Z,102337.12
2018-11-07T20:56:20.384Z,102335.78
2018-11-07T20:58:49.261Z,102330.98
2018-11-07T21:01:18.423Z,102341.00
2018-11-07T21:03:47.737Z,102340.15
2018-11-07T21:06:16.774Z,102341.52
2018-11-07T21:08:45.505Z,102342.84
2018-11-07T21:11:14.611Z,102344.59
2018-11-07T21:13:43.946Z,102349.38
2018-11-07T21:16:13.184Z,102345.56
2018-11-07T21:18:42.377Z,102343.40
2018-11-07T21:21:11.289Z,102344.72
2018-11-07T21:23:40.515Z,102346.52
2018-11-07T21:26:09.344Z,102351.38
2018-11-07T21:28:38.328Z,102351.81
2018-11-07T21:31:07.545Z,102348.34
2018-11-07T21:33:36.593Z,102348.37
2018-11-07T21:36:05.781Z,102342.27
2018-11-07T21:38:35.095Z,102337.48
2018-11-07T21:41:04.203Z,102336.62
2018-11-07T21:43:33.071Z,102340.95
2018-11-07T21:46:02.235Z,102341.84
2018-11-07T21:48:31.411Z,102346.61
2018-11-07T21:51:00.344Z,102351.45
2018-11-07T21:53:29.346Z,102347.64
2018-11-07T21:55:58.369Z,102338.59
2018-11-07T21:58:27.284Z,102346.41
2018-11-07T22:00:56.614Z,102350.31
2018-11-07T22:03:25.680Z,102350.69
2018-11-07T22:05:54.516Z,102360.23
2018-11-07T22:08:23.876Z,102359.81
2018-11-07T22:10:52.667Z,102356.78
2018-11-07T22:13:21.949Z,102362.05
2018-11-07T22:15:50.609Z,102355.55
2018-11-07T22:18:19.664Z,102358.58
2018-11-07T22:20:48.744Z,102355.53
2018-11-07T22:23:17.821Z,102354.23
2018-11-07T22:25:46.728Z,102353.80
2018-11-07T22:28:15.776Z,102355.53
2018-11-07T22:30:44.775Z,102349.45
2018-11-07T22:33:13.468Z,102353.87
2018-11-07T22:35:42.608Z,102357.81
2018-11-07T22:38:11.807Z,102357.35
2018-11-07T22:40:40.940Z,102363.44
2018-11-07T22:43:09.870Z,102363.88
2018-11-07T22:45:39.075Z,102365.55
2018-11-07T22:48:08.033Z,102366.39
2018-11-07T22:50:37.101Z,102364.66
2018-11-07T22:53:06.011Z,102360.81
2018-11-07T22:55:34.975Z,102361.64
2018-11-07T22:58:04.001Z,102362.95
2018-11-07T23:00:38.355Z,102368.64
2018-11-07T23:03:07.125Z,102366.98
2018-11-07T23:05:35.987Z,102369.66
2018-11-07T23:08:05.156Z,102367.44
2018-11-07T23:10:34.168Z,102370.89
2018-11-07T23:13:02.992Z,102366.92
2018-11-07T23:15:37.272Z,102363.00
2018-11-07T23:18:06.816Z,102359.96
2018-11-07T23:20:35.796Z,102360.84
2018-11-07T23:23:05.066Z,102361.78
2018-11-07T23:25:33.934Z,102363.52
2018-11-07T23:28:02.740Z,102361.33
2018-11-07T23:30:31.774Z,102364.02
2018-11-07T23:33:00.952Z,102368.43
2018-11-07T23:35:30.268Z,102366.20
2018-11-07T23:37:59.042Z,102357.51
2018-11-07T23:40:27.768Z,102367.05
2018-11-07T23:42:56.832Z,102369.17
2018-11-07T23:45:25.855Z,102364.38
2018-11-07T23:47:54.760Z,102367.86
2018-11-07T23:50:23.885Z,102368.72
2018-11-07T23:52:53.622Z,102367.43
2018-11-07T23:55:23.774Z,102364.38
2018-11-07T23:57:53.380Z,102357.86
